Delta Virtual Airport Information Service

Montreal Pierre Elliott Trudeau Airport

ICAO: CYUL Country: Canada
Latitude: 45.4706 Longitude: -73.7408
Latest Arrival : JZA8463 (KBOS-CYUL) Latest Departure : ACA319 (CYUL-CYYC)


WX CaptureLIVE
Data provided by noaa.gov | Fetched at 10:29:44

METAR : CYUL 151500Z 22010KT 30SM FEW020TCU SCT100 SCT250 21/14 A2970 RMK TCU2AC1CI1 CI TR SLP060 DENSITY ALT 1100FT

TAF : CYUL 151440Z 1515/1612 23010KT P6SM FEW015 BKN030 OVC090 TEMPO 1515/1521 4SM -SHRA BR BKN015 OVC030 PROB30 1516/1521 21/2SM TSRA BR BKN015 OVC030CB FM152100 28008KT P6SM BKN080 TEMPO 1521/1524 P6SM -SHRA FM160300 35010KT P6SM FEW080 RMK NXT FCST BY 151800Z


Runway Data for CYUL
Data provided by openaviationdata.com

Runway ID Mag Var Hdg Length Elevation Surface ILS Freq ILS Id ILS Slope
06L 15 27° 11020 ft 118 ft Asphalt 109.3 IUL 3
06R 15 27° 9526 ft 118 ft Asphalt 110.5 IOA 3
24L 15 207° 9526 ft 118 ft Asphalt 110.5 IMQ 3
24R 15 207° 11020 ft 118 ft Asphalt 111.9 IZZ 3
28 15 252° 6500 ft 118 ft Asphalt -- -- --

Montreal Pierre Elliott Trudeau Airport, Canada
Use only for reference purposes



Not for navigational purposes.